Time;durP1;ratioP1;P1;durP2;ratioP2;P2;SDS_P1;SDS_P2;PMS_P1;PMS_P2;Temp;Humidity;BMP_temperature;BMP_pressure;BME280_temperature;BME280_humidity;BME280_pressure;Samples;Min_cycle;Max_cycle;Signal;HPM_P1;HPM_P2
2023/04/20 00:01:52;;;;;;;7.53;3.72;;;7.40;59.20;;;;;;6041403;23;86450;-91
2023/04/20 00:04:40;;;;;;;11.25;3.83;;;7.40;58.80;;;;;;5983206;23;88117;-94
2023/04/20 00:07:49;;;;;;;5.95;3.83;;;7.30;59.40;;;;;;5984073;23;87531;-92
2023/04/20 00:37:27;;;;;;;13.27;3.33;;;7.00;59.50;;;;;;5558047;22;15903316;-91
2023/04/20 00:39:54;;;;;;;8.32;3.72;;;6.90;59.60;;;;;;6075400;23;85166;-93
2023/04/20 00:42:20;;;;;;;7.40;3.17;;;6.80;60.20;;;;;;6071964;23;98952;-91
2023/04/20 00:44:46;;;;;;;6.95;3.80;;;6.80;60.50;;;;;;6091333;23;84935;-90
2023/04/20 00:47:12;;;;;;;5.93;3.45;;;6.70;59.80;;;;;;6064858;23;84999;-89
2023/04/20 00:49:38;;;;;;;8.27;3.60;;;6.70;59.70;;;;;;6063339;23;85295;-90
2023/04/20 00:52:04;;;;;;;6.28;3.60;;;6.70;60.00;;;;;;6056489;23;85216;-92
2023/04/20 00:54:31;;;;;;;13.73;3.65;;;6.70;60.20;;;;;;6055565;23;84859;-90
2023/04/20 00:56:59;;;;;;;7.05;4.13;;;6.60;59.50;;;;;;6056244;23;85057;-90
2023/04/20 00:59:25;;;;;;;7.18;3.63;;;6.60;59.90;;;;;;6024870;23;85415;-91
2023/04/20 01:01:51;;;;;;;7.95;3.63;;;6.60;60.30;;;;;;6045478;23;85287;-90
2023/04/20 01:04:17;;;;;;;9.27;3.65;;;6.50;60.60;;;;;;6055573;23;84756;-91
2023/04/20 01:06:43;;;;;;;8.35;3.33;;;6.50;59.30;;;;;;6055829;23;85167;-92
2023/04/20 01:09:11;;;;;;;6.05;3.58;;;6.50;60.30;;;;;;6054614;23;86110;-91
2023/04/20 01:11:37;;;;;;;9.50;3.55;;;6.50;60.90;;;;;;6053238;23;84843;-88
2023/04/20 01:14:02;;;;;;;6.40;3.38;;;6.40;60.30;;;;;;6054094;23;85123;-93
2023/04/20 01:16:29;;;;;;;8.23;4.28;;;6.40;61.10;;;;;;6076684;23;85087;-90
2023/04/20 01:18:55;;;;;;;7.80;3.67;;;6.30;60.60;;;;;;6053855;23;85670;-93
2023/04/20 01:21:21;;;;;;;7.57;3.58;;;6.30;61.40;;;;;;6023785;23;85109;-93
2023/04/20 01:23:47;;;;;;;5.55;3.42;;;6.20;61.40;;;;;;5994705;23;85448;-91
2023/04/20 01:26:16;;;;;;;5.78;3.28;;;6.20;60.90;;;;;;5995197;23;85200;-91
2023/04/20 01:28:42;;;;;;;7.70;3.65;;;6.20;61.50;;;;;;5994877;23;86657;-92
2023/04/20 01:31:09;;;;;;;8.20;3.85;;;6.10;61.30;;;;;;6040257;23;84993;-92
2023/04/20 01:33:35;;;;;;;8.40;3.47;;;6.10;61.50;;;;;;6069619;23;85031;-93
2023/04/20 01:36:01;;;;;;;7.28;3.60;;;6.00;61.20;;;;;;6057740;23;85091;-91
2023/04/20 01:38:29;;;;;;;7.30;3.95;;;6.00;62.20;;;;;;6050116;23;85725;-92
2023/04/20 01:40:55;;;;;;;10.65;4.05;;;6.00;62.90;;;;;;6050738;23;84920;-92
2023/04/20 01:43:21;;;;;;;6.53;3.90;;;6.00;62.50;;;;;;6016417;23;84899;-90
2023/04/20 01:45:47;;;;;;;11.43;3.90;;;5.90;61.70;;;;;;6017794;23;84966;-93
2023/04/20 01:48:13;;;;;;;7.03;3.85;;;5.90;62.10;;;;;;6014564;23;85688;-94
2023/04/20 01:50:38;;;;;;;8.93;3.63;;;5.80;63.00;;;;;;6010411;23;86075;-92
2023/04/20 01:53:04;;;;;;;10.15;3.55;;;5.80;63.10;;;;;;6017167;23;85150;-93
2023/04/20 01:55:30;;;;;;;7.82;3.90;;;5.80;62.50;;;;;;6044332;23;85037;-93
2023/04/20 01:57:55;;;;;;;16.70;4.32;;;5.70;62.20;;;;;;6026598;23;85744;-93
2023/04/20 02:00:21;;;;;;;5.47;3.63;;;5.70;63.00;;;;;;6074790;23;85164;-93
2023/04/20 02:02:47;;;;;;;6.43;3.92;;;5.70;61.70;;;;;;6050066;23;85548;-93
2023/04/20 02:05:12;;;;;;;6.47;3.35;;;5.70;63.00;;;;;;6094224;23;85084;-93
2023/04/20 02:07:38;;;;;;;11.43;3.60;;;5.60;62.80;;;;;;6133860;23;85652;-93
2023/04/20 02:10:04;;;;;;;8.38;3.70;;;5.60;61.50;;;;;;6103706;23;84935;-92
2023/04/20 02:12:29;;;;;;;11.77;4.63;;;5.60;62.70;;;;;;6016554;23;84847;-94
2023/04/20 02:14:55;;;;;;;6.18;3.55;;;5.60;61.80;;;;;;6037099;23;86479;-94
2023/04/20 02:17:21;;;;;;;8.27;3.95;;;5.60;61.70;;;;;;6035230;23;85806;-93
2023/04/20 02:19:46;;;;;;;8.23;3.67;;;5.70;60.40;;;;;;6082085;23;85307;-93
2023/04/20 02:59:07;;;;;;;4.55;2.63;;;5.60;60.20;;;;;;6193954;22;86236;-93
2023/04/20 03:01:32;;;;;;;10.55;3.25;;;5.60;60.20;;;;;;6194360;22;85203;-93
2023/04/20 03:03:58;;;;;;;7.05;3.22;;;5.70;59.60;;;;;;6195777;22;84777;-94
2023/04/20 03:06:25;;;;;;;6.40;2.72;;;5.70;58.70;;;;;;6193970;22;84949;-94
2023/04/20 03:15:33;;;;;;;6.18;3.15;;;5.90;60.00;;;;;;6132907;22;84846;-93
2023/04/20 03:17:59;;;;;;;7.45;2.65;;;5.90;58.80;;;;;;6109166;23;85072;-94
2023/04/20 03:20:25;;;;;;;2.97;2.30;;;6.00;59.30;;;;;;6103073;23;87860;-93
2023/04/20 03:22:50;;;;;;;9.68;3.13;;;6.00;60.00;;;;;;6073347;23;85239;-93
2023/04/20 03:25:16;;;;;;;9.63;3.58;;;6.00;59.70;;;;;;6049795;23;84941;-93
2023/04/20 03:27:42;;;;;;;5.97;2.97;;;5.90;57.40;;;;;;6050998;23;85097;-93
2023/04/20 03:30:08;;;;;;;8.48;2.95;;;5.90;58.80;;;;;;6049758;23;85282;-92
2023/04/20 03:32:34;;;;;;;10.23;3.60;;;5.90;58.10;;;;;;6049869;23;85375;-93
2023/04/20 03:35:00;;;;;;;4.20;2.72;;;5.80;59.60;;;;;;6045182;23;84966;-92
2023/04/20 03:37:25;;;;;;;8.90;3.25;;;5.80;58.80;;;;;;6020938;23;85073;-93
2023/04/20 03:39:51;;;;;;;11.63;3.35;;;5.70;59.00;;;;;;6060025;23;85915;-93
2023/04/20 03:42:18;;;;;;;7.50;3.10;;;5.70;58.60;;;;;;6073881;23;86053;-93
2023/04/20 03:44:43;;;;;;;6.45;2.97;;;5.60;57.90;;;;;;6073622;23;84961;-93
2023/04/20 03:47:09;;;;;;;6.40;3.10;;;5.60;58.40;;;;;;6074271;23;85117;-92
2023/04/20 03:49:35;;;;;;;10.45;2.35;;;5.60;59.10;;;;;;6073787;23;85370;-92
2023/04/20 03:52:01;;;;;;;7.50;3.00;;;5.60;58.80;;;;;;6074258;23;85353;-92
2023/04/20 03:54:26;;;;;;;6.55;2.90;;;5.50;59.70;;;;;;6095176;23;85205;-93
2023/04/20 04:20:20;;;;;;;17.17;6.95;;;5.80;59.50;;;;;;6160599;22;85718;-89
2023/04/20 04:22:45;;;;;;;15.93;6.20;;;5.90;60.80;;;;;;6138131;22;85188;-93
2023/04/20 04:25:11;;;;;;;11.85;6.03;;;5.90;60.50;;;;;;6138190;22;85056;-93
2023/04/20 04:27:38;;;;;;;11.63;5.97;;;5.90;59.30;;;;;;6155689;22;85316;-93
2023/04/20 04:30:05;;;;;;;15.88;6.75;;;6.00;59.90;;;;;;6194334;22;84838;-93
2023/04/20 04:32:33;;;;;;;10.13;5.97;;;6.00;60.40;;;;;;6194352;22;84798;-92
2023/04/20 04:35:00;;;;;;;12.15;6.22;;;6.10;59.30;;;;;;6193186;22;84985;-93
2023/04/20 04:37:26;;;;;;;14.50;6.07;;;6.00;60.20;;;;;;6168227;22;85261;-94
2023/04/20 04:39:51;;;;;;;12.73;5.80;;;6.10;60.20;;;;;;6169054;22;84676;-91
2023/04/20 04:42:17;;;;;;;10.70;5.80;;;6.10;60.60;;;;;;6167843;22;84748;-93
2023/04/20 04:44:43;;;;;;;13.05;4.80;;;6.20;60.00;;;;;;6162910;22;85059;-92
2023/04/20 04:47:10;;;;;;;17.88;6.15;;;6.20;59.90;;;;;;6163259;22;85565;-93
2023/04/20 04:49:36;;;;;;;9.00;4.82;;;6.20;60.70;;;;;;6163268;22;84982;-92
2023/04/20 05:15:37;;;;;;;7.55;4.05;;;6.50;62.20;;;;;;6152913;22;84848;-94
2023/04/20 05:18:13;;;;;;;11.40;4.72;;;6.50;62.80;;;;;;6151660;22;86197;-91
2023/04/20 05:20:42;;;;;;;10.93;4.75;;;6.50;62.40;;;;;;6112421;23;85291;-94
2023/04/20 05:23:08;;;;;;;9.40;4.75;;;6.60;62.50;;;;;;6078842;23;85797;-92
2023/04/20 05:25:55;;;;;;;9.00;5.07;;;6.60;62.70;;;;;;6062410;23;85540;-93
2023/04/20 05:29:03;;;;;;;9.32;4.55;;;6.60;63.40;;;;;;6003658;23;84878;-93
2023/04/20 05:32:09;;;;;;;9.35;5.00;;;6.60;66.20;;;;;;5974567;23;86345;-93
2023/04/20 05:34:57;;;;;;;10.15;5.55;;;6.60;68.60;;;;;;5889309;24;85631;-93
2023/04/20 05:37:26;;;;;;;13.02;6.63;;;6.50;72.30;;;;;;5912593;23;85446;-93
2023/04/20 05:39:58;;;;;;;14.73;6.40;;;6.40;74.60;;;;;;5911939;23;84892;-93
2023/04/20 05:42:24;;;;;;;11.95;6.30;;;6.30;76.30;;;;;;5916793;23;85131;-94
2023/04/20 05:44:50;;;;;;;12.68;6.10;;;6.20;78.50;;;;;;5890542;23;85960;-94
2023/04/20 05:47:38;;;;;;;14.65;6.43;;;6.10;79.70;;;;;;5873139;23;85372;-93
2023/04/20 06:24:09;;;;;;;12.82;7.35;;;6.30;90.00;;;;;;6118594;22;86902;-93
2023/04/20 06:26:35;;;;;;;14.38;9.02;;;6.30;90.10;;;;;;6161608;22;85813;-92
2023/04/20 06:29:01;;;;;;;15.10;8.00;;;6.30;90.40;;;;;;6137669;22;87477;-89
2023/04/20 06:31:27;;;;;;;15.75;7.07;;;6.40;90.10;;;;;;6137492;22;86488;-83
2023/04/20 06:33:52;;;;;;;13.25;7.78;;;6.40;90.50;;;;;;6167498;22;85444;-88
2023/04/20 06:36:18;;;;;;;13.40;7.63;;;6.40;90.50;;;;;;6144534;22;85558;-92
2023/04/20 06:38:44;;;;;;;12.23;6.82;;;6.40;90.30;;;;;;6105310;23;85407;-92
2023/04/20 06:41:10;;;;;;;16.92;8.05;;;6.50;90.10;;;;;;6081569;23;84832;-89
2023/04/20 06:43:57;;;;;;;11.25;6.85;;;6.50;90.30;;;;;;6094833;22;85401;-88
2023/04/20 06:46:24;;;;;;;13.85;7.00;;;6.50;90.00;;;;;;6097587;23;85808;-88
2023/04/20 06:48:50;;;;;;;12.02;6.25;;;6.60;90.50;;;;;;6082503;23;85707;-89
2023/04/20 06:51:17;;;;;;;12.50;7.30;;;6.60;90.00;;;;;;6076048;23;84848;-89
2023/04/20 06:53:43;;;;;;;13.15;7.68;;;6.70;89.60;;;;;;6060397;23;85189;-89
2023/04/20 06:56:10;;;;;;;12.98;7.75;;;6.70;88.40;;;;;;6085346;23;85916;-91
2023/04/20 06:58:35;;;;;;;12.55;6.97;;;6.70;90.10;;;;;;6089776;23;84924;-90
2023/04/20 07:04:29;;;;;;;14.27;6.53;;;6.80;88.10;;;;;;6086785;23;85961;-78
2023/04/20 07:06:55;;;;;;;11.63;7.35;;;6.90;87.00;;;;;;6094847;23;89151;-84
2023/04/20 07:09:26;;;;;;;13.18;6.65;;;7.00;90.10;;;;;;6104186;22;88500;-90
2023/04/20 07:11:55;;;;;;;11.05;6.95;;;7.00;87.00;;;;;;6043663;23;85499;-85
2023/04/20 07:14:20;;;;;;;15.48;7.78;;;6.90;87.50;;;;;;6040827;23;85954;-80
2023/04/20 07:16:46;;;;;;;12.43;6.93;;;6.90;90.00;;;;;;6048848;23;85999;-82
2023/04/20 07:21:41;;;;;;;14.73;7.55;;;7.00;88.50;;;;;;6159442;22;86117;-79
2023/04/20 07:24:07;;;;;;;13.15;7.90;;;6.90;87.20;;;;;;6158068;22;87125;-78
2023/04/20 07:26:33;;;;;;;11.70;7.50;;;6.90;89.70;;;;;;6157423;22;87046;-77
2023/04/20 07:31:37;;;;;;;14.90;8.15;;;7.00;90.00;;;;;;6165052;22;88684;-81
2023/04/20 07:34:02;;;;;;;11.43;7.78;;;7.00;89.40;;;;;;6166597;22;86168;-80
2023/04/20 07:36:29;;;;;;;14.00;7.72;;;7.00;87.90;;;;;;6178209;22;87030;-84
2023/04/20 07:38:55;;;;;;;13.48;7.78;;;7.00;88.00;;;;;;6182597;22;85329;-84
2023/04/20 07:41:24;;;;;;;11.45;7.50;;;7.00;88.30;;;;;;6190311;22;84735;-87
2023/04/20 07:44:29;;;;;;;12.80;7.55;;;7.00;89.10;;;;;;6125334;23;84969;-88
2023/04/20 07:47:15;;;;;;;12.15;7.03;;;7.00;88.40;;;;;;6098639;23;87315;-90
2023/04/20 07:50:02;;;;;;;11.95;7.35;;;7.00;87.70;;;;;;6020273;23;85465;-84
2023/04/20 07:52:28;;;;;;;10.18;6.55;;;7.10;88.00;;;;;;5968742;23;85571;-82
2023/04/20 07:57:30;;;;;;;12.85;8.00;;;7.10;88.40;;;;;;6158188;22;86980;-79
2023/04/20 07:59:57;;;;;;;14.13;8.05;;;7.10;86.60;;;;;;6180004;22;87353;-81
2023/04/20 08:02:23;;;;;;;16.20;7.53;;;7.10;88.20;;;;;;6175707;22;85648;-80
2023/04/20 08:04:50;;;;;;;15.75;8.88;;;7.20;90.00;;;;;;6173873;22;86248;-81
2023/04/20 08:14:01;;;;;;;17.75;8.88;;;7.40;88.70;;;;;;6161546;22;86059;-79
2023/04/20 08:16:26;;;;;;;16.15;8.07;;;7.60;89.10;;;;;;6160819;22;86103;-80
2023/04/20 08:18:52;;;;;;;11.82;8.02;;;7.70;87.60;;;;;;6160601;22;85766;-80
2023/04/20 08:21:21;;;;;;;15.40;8.35;;;7.70;85.50;;;;;;6132828;22;89621;-80
2023/04/20 08:23:47;;;;;;;20.23;7.32;;;7.80;86.40;;;;;;6157614;22;85931;-80
2023/04/20 08:26:16;;;;;;;14.65;7.53;;;7.90;85.60;;;;;;6159448;22;86254;-80
2023/04/20 08:28:43;;;;;;;12.52;7.70;;;8.10;86.90;;;;;;6133048;22;90413;-81
2023/04/20 08:31:10;;;;;;;13.05;8.20;;;8.20;85.40;;;;;;6136302;22;90086;-79
2023/04/20 08:33:35;;;;;;;12.40;8.07;;;8.30;85.60;;;;;;6165747;22;86073;-81
2023/04/20 08:36:01;;;;;;;13.70;8.10;;;8.40;86.80;;;;;;6163471;22;86000;-81
2023/04/20 08:38:27;;;;;;;14.93;7.72;;;8.40;85.80;;;;;;6165630;22;87436;-81
2023/04/20 08:40:52;;;;;;;14.23;7.95;;;8.60;85.70;;;;;;6151281;22;86933;-82
2023/04/20 08:43:18;;;;;;;11.55;6.88;;;8.70;85.30;;;;;;6162646;22;85838;-81
2023/04/20 08:45:51;;;;;;;13.82;7.65;;;8.80;83.20;;;;;;6163758;22;85942;-81
2023/04/20 08:48:20;;;;;;;11.55;7.75;;;8.90;83.50;;;;;;6166348;22;85761;-81
2023/04/20 08:50:47;;;;;;;13.30;7.20;;;9.00;83.80;;;;;;6139848;22;89163;-83
2023/04/20 08:53:13;;;;;;;12.30;6.90;;;9.20;83.80;;;;;;6139876;22;86399;-80
2023/04/20 08:55:38;;;;;;;16.33;7.95;;;9.40;83.20;;;;;;6142354;22;86352;-81
2023/04/20 08:58:04;;;;;;;9.32;7.38;;;9.50;82.80;;;;;;6164729;22;86398;-80
2023/04/20 09:00:30;;;;;;;12.40;7.53;;;9.60;80.90;;;;;;6139394;22;89356;-80
2023/04/20 09:02:57;;;;;;;12.90;6.70;;;9.80;81.00;;;;;;6165216;22;86053;-80
2023/04/20 09:05:27;;;;;;;9.50;7.22;;;9.80;79.60;;;;;;6171676;22;85534;-80
2023/04/20 09:08:15;;;;;;;9.20;7.18;;;9.80;77.10;;;;;;6177811;22;86105;-81
2023/04/20 09:11:09;;;;;;;11.55;6.88;;;9.70;77.50;;;;;;6037631;23;88174;-81
2023/04/20 09:13:36;;;;;;;12.80;8.90;;;9.70;78.30;;;;;;6012318;23;85947;-81
2023/04/20 09:16:12;;;;;;;11.98;8.43;;;9.70;78.20;;;;;;5948524;23;85689;-80
2023/04/20 09:19:24;;;;;;;12.77;9.93;;;9.60;77.60;;;;;;5944705;23;85713;-80
2023/04/20 09:21:52;;;;;;;14.75;10.38;;;9.60;75.50;;;;;;5916556;23;85963;-81
2023/04/20 09:24:23;;;;;;;14.50;10.93;;;9.50;75.90;;;;;;5919267;23;86238;-80
2023/04/20 09:26:49;;;;;;;14.93;11.00;;;9.50;76.00;;;;;;5914020;23;86047;-80
2023/04/20 09:29:19;;;;;;;15.27;11.00;;;9.60;77.20;;;;;;5911332;23;86705;-81
2023/04/20 09:31:46;;;;;;;12.95;9.35;;;9.70;77.20;;;;;;5915505;23;86499;-81
2023/04/20 09:37:54;;;;;;;15.82;10.32;;;9.80;75.10;;;;;;5919299;23;85594;-82
2023/04/20 09:40:40;;;;;;;15.18;10.20;;;10.00;75.20;;;;;;5895799;23;85267;-81
2023/04/20 09:44:07;;;;;;;13.10;10.40;;;10.10;73.60;;;;;;5924058;23;89400;-83
2023/04/20 09:46:35;;;;;;;17.80;10.55;;;10.20;73.40;;;;;;5946104;23;85784;-80
2023/04/20 09:49:28;;;;;;;14.48;10.15;;;10.20;73.60;;;;;;5970827;23;85727;-78
2023/04/20 09:55:51;;;;;;;15.27;11.07;;;10.40;71.70;;;;;;5979072;23;85549;-80
2023/04/20 10:24:07;;;;;;;12.27;9.13;;;10.30;70.90;;;;;;6135452;22;87269;-80
2023/04/20 10:26:43;;;;;;;11.93;7.45;;;10.50;71.40;;;;;;6164731;22;86816;-79
2023/04/20 10:29:28;;;;;;;15.02;7.63;;;11.00;71.80;;;;;;6144808;22;86153;-79
2023/04/20 10:32:21;;;;;;;13.73;9.75;;;11.50;70.50;;;;;;6176000;22;86012;-81
2023/04/20 11:17:00;;;;;;;15.88;10.75;;;11.90;62.40;;;;;;6189277;22;86351;-82
2023/04/20 11:26:13;;;;;;;10.25;8.13;;;11.50;64.20;;;;;;6159003;22;86987;-80
2023/04/20 11:28:51;;;;;;;8.90;7.13;;;11.40;65.20;;;;;;6186960;22;87090;-81
2023/04/20 11:31:39;;;;;;;10.45;7.35;;;11.30;64.80;;;;;;5983177;23;85581;-81
2023/04/20 11:34:07;;;;;;;9.95;7.25;;;11.30;66.10;;;;;;5985901;23;86137;-81
2023/04/20 11:36:38;;;;;;;9.00;6.90;;;11.30;66.10;;;;;;5872905;23;84910;-81
2023/04/20 11:39:29;;;;;;;9.15;6.85;;;11.30;65.40;;;;;;5787948;24;93885;-81
2023/04/20 11:48:21;;;;;;;13.88;8.45;;;11.10;68.00;;;;;;6149260;22;85597;-80
2023/04/20 11:51:06;;;;;;;10.80;7.68;;;11.10;70.70;;;;;;6038124;23;85789;-80
2023/04/20 11:53:32;;;;;;;10.18;8.27;;;11.00;71.40;;;;;;6029150;23;88916;-80
2023/04/20 12:03:38;;;;;;;16.42;10.75;;;10.20;75.90;;;;;;6054423;23;85137;-81
2023/04/20 12:06:52;;;;;;;13.95;9.88;;;10.00;79.20;;;;;;6003143;23;89543;-82
2023/04/20 12:10:22;;;;;;;13.95;11.05;;;10.30;83.10;;;;;;5952381;23;85207;-81
2023/04/20 12:12:55;;;;;;;13.07;10.50;;;10.80;81.40;;;;;;5926673;23;84973;-81
2023/04/20 12:16:11;;;;;;;13.75;11.10;;;11.10;80.30;;;;;;5922048;23;85702;-80
2023/04/20 12:19:03;;;;;;;14.60;12.68;;;11.40;79.30;;;;;;5766276;24;86313;-81
2023/04/20 12:21:31;;;;;;;17.90;14.15;;;11.90;78.70;;;;;;5798709;24;86762;-81
2023/04/20 12:24:16;;;;;;;16.30;13.32;;;12.20;74.00;;;;;;5768172;24;85440;-81
2023/04/20 12:26:43;;;;;;;18.33;12.95;;;12.40;73.70;;;;;;5758788;24;88677;-81
2023/04/20 12:29:10;;;;;;;14.98;13.38;;;12.60;73.00;;;;;;5758390;24;85563;-81
2023/04/20 12:31:55;;;;;;;16.58;12.48;;;12.90;74.70;;;;;;5716374;24;86358;-80
2023/04/20 12:34:21;;;;;;;13.70;12.05;;;13.20;70.10;;;;;;5738902;24;86075;-81
2023/04/20 12:36:46;;;;;;;15.38;12.15;;;13.10;67.00;;;;;;5719149;24;87946;-81
2023/04/20 12:39:12;;;;;;;11.75;10.15;;;13.10;70.80;;;;;;5713453;24;89526;-81
2023/04/20 13:26:23;;;;;;;4.75;4.35;;;16.10;65.00;;;;;;6157961;22;88022;-80
2023/04/20 13:28:49;;;;;;;4.70;4.30;;;16.70;59.20;;;;;;6142502;22;88772;-80
2023/04/20 13:31:15;;;;;;;3.53;3.10;;;17.10;61.00;;;;;;6169345;22;86083;-81
2023/04/20 13:33:41;;;;;;;4.00;3.65;;;17.50;57.60;;;;;;6173631;22;86098;-81
2023/04/20 13:36:07;;;;;;;3.22;2.92;;;17.70;57.20;;;;;;6176035;22;87100;-81
2023/04/20 13:38:33;;;;;;;3.65;3.08;;;18.10;56.20;;;;;;6177865;22;85612;-79
2023/04/20 13:41:00;;;;;;;3.28;3.03;;;18.40;55.80;;;;;;6166722;22;85958;-79
2023/04/20 13:43:25;;;;;;;3.53;3.22;;;18.20;53.60;;;;;;6137405;22;86046;-80
2023/04/20 13:45:51;;;;;;;3.83;3.13;;;17.90;54.50;;;;;;6162847;22;87374;-80
2023/04/20 13:48:17;;;;;;;3.55;3.25;;;18.00;54.50;;;;;;6163182;22;87032;-79
2023/04/20 13:54:05;;;;;;;3.70;3.30;;;18.10;54.10;;;;;;6159843;22;86447;-80
2023/04/20 13:56:34;;;;;;;3.83;3.47;;;18.30;54.50;;;;;;6160576;22;86999;-80
2023/04/20 13:59:02;;;;;;;4.07;3.45;;;17.90;54.40;;;;;;6161499;22;86785;-80
2023/04/20 14:01:29;;;;;;;3.10;2.90;;;17.60;55.10;;;;;;6135326;22;86255;-80
2023/04/20 14:03:55;;;;;;;3.05;2.85;;;16.90;54.10;;;;;;6165067;22;86077;-80
2023/04/20 14:06:22;;;;;;;3.38;3.17;;;16.40;54.50;;;;;;6142998;22;90568;-80
2023/04/20 14:08:48;;;;;;;5.25;3.85;;;16.20;56.80;;;;;;6140886;22;88888;-80
2023/04/20 14:11:15;;;;;;;3.85;3.55;;;15.70;58.00;;;;;;6173182;22;85617;-81
2023/04/20 14:13:41;;;;;;;4.00;2.70;;;15.20;59.00;;;;;;6098530;22;86409;-80
2023/04/20 14:16:11;;;;;;;3.97;2.35;;;14.70;58.90;;;;;;6180118;22;85546;-80
2023/04/20 14:18:57;;;;;;;2.70;2.42;;;14.40;60.20;;;;;;6150723;22;87811;-80
2023/04/20 14:21:22;;;;;;;2.92;2.63;;;14.10;60.50;;;;;;6090080;23;88924;-80
2023/04/20 14:23:52;;;;;;;2.65;2.45;;;14.10;59.90;;;;;;6085696;23;86461;-80
2023/04/20 14:38:01;;;;;;;3.05;2.75;;;17.40;55.90;;;;;;6168037;22;88333;-82
2023/04/20 14:40:27;;;;;;;4.97;2.42;;;18.30;53.30;;;;;;6027677;23;87102;-80
2023/04/20 14:43:21;;;;;;;2.50;2.30;;;19.00;50.90;;;;;;6037635;23;85899;-83
2023/04/20 14:46:04;;;;;;;2.80;2.55;;;19.40;48.10;;;;;;6008319;23;84851;-83
2023/04/20 14:49:09;;;;;;;4.55;2.78;;;19.90;47.70;;;;;;6000094;23;85036;-83
2023/04/20 14:51:47;;;;;;;3.88;2.78;;;20.70;44.60;;;;;;5901216;23;86855;-84
2023/04/20 14:54:15;;;;;;;2.80;2.60;;;20.90;45.80;;;;;;5846764;24;86167;-80
2023/04/20 14:57:22;;;;;;;3.33;2.83;;;21.50;44.10;;;;;;5846323;24;85559;-84
2023/04/20 15:00:35;;;;;;;2.28;2.03;;;21.90;42.90;;;;;;5790891;24;86074;-87
2023/04/20 15:03:32;;;;;;;3.17;2.45;;;22.30;41.60;;;;;;5710078;24;85817;-85
2023/04/20 15:06:33;;;;;;;3.58;2.15;;;21.30;42.50;;;;;;5689906;24;85394;-85
2023/04/20 15:09:52;;;;;;;3.53;2.70;;;21.70;42.40;;;;;;5633546;24;87141;-84
2023/04/20 15:44:40;;;;;;;6.05;3.75;;;21.70;39.80;;;;;;6176309;22;87432;31
2023/04/20 16:42:44;;;;;;;4.57;3.63;;;20.80;39.60;;;;;;6186811;22;87113;-83
2023/04/20 16:46:00;;;;;;;3.78;3.10;;;21.60;37.90;;;;;;6033575;23;86105;-84
2023/04/20 16:58:52;;;;;;;3.45;3.15;;;23.10;34.90;;;;;;6152183;22;88637;-79
2023/04/20 20:57:19;;;;;;;12.02;8.02;;;7.40;81.00;;;;;;6109151;22;87035;31
2023/04/20 21:07:05;;;;;;;10.40;7.10;;;7.40;83.30;;;;;;6126158;22;87243;31
2023/04/20 21:10:12;;;;;;;10.10;6.35;;;7.40;83.40;;;;;;6151853;22;87388;31
2023/04/20 21:13:53;;;;;;;11.63;7.90;;;7.40;82.30;;;;;;6158896;22;86959;31
2023/04/20 22:23:07;;;;;;;16.20;11.02;;;7.80;85.50;;;;;;6131408;22;87265;31
2023/04/20 22:29:22;;;;;;;16.25;12.27;;;7.90;84.00;;;;;;6161330;22;87264;31
2023/04/20 22:35:57;;;;;;;17.25;13.18;;;8.00;84.20;;;;;;6154701;22;87053;31
